createdAt,value
2019-04-29T00:01:45.747Z,1.13
2019-04-29T00:04:14.015Z,1.77
2019-04-29T00:06:42.875Z,1.40
2019-04-29T00:09:14.714Z,1.23
2019-04-29T00:11:42.973Z,1.63
2019-04-29T00:14:11.234Z,1.07
2019-04-29T00:16:56.463Z,1.70
2019-04-29T00:19:29.027Z,1.20
2019-04-29T00:21:58.323Z,1.30
2019-04-29T00:24:26.596Z,1.10
2019-04-29T00:26:54.870Z,1.27
2019-04-29T00:29:23.145Z,1.63
2019-04-29T00:31:51.498Z,1.50
2019-04-29T00:34:19.782Z,1.30
2019-04-29T00:37:01.645Z,1.10
2019-04-29T00:39:47.779Z,1.20
2019-04-29T00:42:17.679Z,1.23
2019-04-29T00:44:45.966Z,1.50
2019-04-29T00:47:14.220Z,1.60
2019-04-29T00:49:42.521Z,1.53
2019-04-29T00:52:10.775Z,1.33
2019-04-29T00:54:40.686Z,1.20
2019-04-29T00:57:09.631Z,1.13
2019-04-29T00:59:37.892Z,1.53
2019-04-29T01:02:06.179Z,1.10
2019-04-29T01:04:34.511Z,1.20
2019-04-29T01:07:02.786Z,1.57
2019-04-29T01:09:31.506Z,1.43
2019-04-29T01:11:59.785Z,1.20
2019-04-29T01:14:28.042Z,1.10
2019-04-29T01:16:56.662Z,1.23
2019-04-29T01:19:24.914Z,1.10
2019-04-29T01:21:53.203Z,1.27
2019-04-29T01:24:21.463Z,1.30
2019-04-29T01:26:57.098Z,1.20
2019-04-29T01:29:27.038Z,1.30
2019-04-29T01:31:55.696Z,1.00
2019-04-29T01:34:25.694Z,1.10
2019-04-29T01:36:53.962Z,1.23
2019-04-29T01:39:23.870Z,1.33
2019-04-29T01:41:53.786Z,1.40
2019-04-29T01:44:29.907Z,1.10
2019-04-29T01:46:58.486Z,1.30
2019-04-29T01:49:26.763Z,1.03
2019-04-29T01:51:55.028Z,1.10
2019-04-29T01:54:23.314Z,1.00
2019-04-29T01:56:51.691Z,1.40
2019-04-29T01:59:19.962Z,0.87
2019-04-29T02:01:48.299Z,1.17
2019-04-29T02:04:16.578Z,1.43
2019-04-29T02:06:44.834Z,1.27
2019-04-29T02:09:14.734Z,1.20
2019-04-29T02:11:42.995Z,1.10
2019-04-29T02:14:11.285Z,1.17
2019-04-29T02:16:39.539Z,1.00
2019-04-29T02:19:08.384Z,1.00
2019-04-29T02:21:36.641Z,1.10
2019-04-29T02:24:09.306Z,1.40
2019-04-29T02:26:37.558Z,0.83
2019-04-29T02:29:05.854Z,1.10
2019-04-29T02:31:44.617Z,1.07
2019-04-29T02:34:12.966Z,1.10
2019-04-29T02:36:41.216Z,1.10
2019-04-29T02:39:11.883Z,1.10
2019-04-29T02:41:57.090Z,1.00
2019-04-29T02:44:25.379Z,1.00
2019-04-29T02:46:53.638Z,0.93
2019-04-29T02:49:21.919Z,1.00
2019-04-29T02:51:51.824Z,1.00
2019-04-29T02:54:20.319Z,0.93
2019-04-29T02:56:53.002Z,0.97
2019-04-29T02:59:25.711Z,1.10
2019-04-29T03:01:58.369Z,1.00
2019-04-29T03:04:44.763Z,0.90
2019-04-29T03:07:13.022Z,1.10
2019-04-29T03:09:47.285Z,0.90
2019-04-29T03:12:15.534Z,1.43
2019-04-29T03:14:43.823Z,1.03
2019-04-29T03:17:12.081Z,0.80
2019-04-29T03:19:58.310Z,1.20
2019-04-29T03:22:26.565Z,1.03
2019-04-29T03:24:54.848Z,0.90
2019-04-29T03:27:23.495Z,1.00
2019-04-29T03:29:51.767Z,1.07
2019-04-29T03:32:20.087Z,1.17
2019-04-29T03:34:48.431Z,0.90
2019-04-29T03:37:16.686Z,1.07
2019-04-29T03:39:45.560Z,1.20
2019-04-29T03:42:13.878Z,1.00
2019-04-29T03:44:42.145Z,0.97
2019-04-29T03:47:10.489Z,1.10
2019-04-29T03:49:38.747Z,0.70
2019-04-29T03:52:07.014Z,1.00
2019-04-29T03:54:35.327Z,1.03
2019-04-29T03:57:03.619Z,0.97
2019-04-29T03:59:31.903Z,1.00
2019-04-29T04:02:04.762Z,1.00
2019-04-29T04:04:52.699Z,0.70
2019-04-29T04:07:38.999Z,1.00
2019-04-29T04:10:07.902Z,0.80
2019-04-29T04:12:36.159Z,0.93
2019-04-29T04:15:06.246Z,0.80
2019-04-29T04:17:38.661Z,0.90
2019-04-29T04:20:07.078Z,0.90
2019-04-29T04:22:48.248Z,1.20
2019-04-29T04:25:17.830Z,1.00
2019-04-29T04:27:47.123Z,1.00
2019-04-29T04:30:15.709Z,0.93
2019-04-29T04:32:44.002Z,1.00
2019-04-29T04:35:12.247Z,1.10
2019-04-29T04:37:40.538Z,0.80
2019-04-29T04:40:10.426Z,0.97
2019-04-29T04:42:38.695Z,0.93
2019-04-29T04:45:07.039Z,0.70
2019-04-29T04:47:35.298Z,0.90
2019-04-29T04:50:04.318Z,0.87
2019-04-29T04:52:32.590Z,1.10
2019-04-29T04:55:00.875Z,0.90
2019-04-29T04:57:29.218Z,0.70
2019-04-29T04:59:57.541Z,1.07
2019-04-29T05:02:26.711Z,1.53
2019-04-29T05:04:55.144Z,1.77
2019-04-29T05:07:23.474Z,2.13
2019-04-29T05:09:51.725Z,1.80
2019-04-29T05:12:19.998Z,2.40
2019-04-29T05:14:48.249Z,2.50
2019-04-29T05:17:16.541Z,2.83
2019-04-29T05:19:44.786Z,2.80
2019-04-29T05:22:13.057Z,2.50
2019-04-29T05:24:41.309Z,3.17
2019-04-29T05:27:09.589Z,2.23
2019-04-29T05:29:37.942Z,2.23
2019-04-29T05:32:06.221Z,2.23
2019-04-29T05:34:36.110Z,2.50
2019-04-29T05:37:05.995Z,1.90
2019-04-29T05:39:38.965Z,1.83
2019-04-29T05:42:15.675Z,2.30
2019-04-29T05:44:39.149Z,2.20
2019-04-29T05:47:09.149Z,2.40
2019-04-29T05:49:41.728Z,2.30
2019-04-29T05:52:29.970Z,1.90
2019-04-29T05:54:56.994Z,2.17
2019-04-29T05:57:26.982Z,1.93
2019-04-29T05:59:55.405Z,2.10
2019-04-29T06:02:33.184Z,2.37
2019-04-29T06:04:54.011Z,2.10
2019-04-29T06:07:23.555Z,2.60
2019-04-29T06:09:52.414Z,2.30
2019-04-29T06:12:20.665Z,2.70
2019-04-29T06:14:48.963Z,2.90
2019-04-29T06:17:17.242Z,2.70
2019-04-29T06:19:45.498Z,2.30
2019-04-29T06:22:13.756Z,3.00
2019-04-29T06:24:42.254Z,2.47
2019-04-29T06:27:11.914Z,2.37
2019-04-29T06:29:40.198Z,2.10
2019-04-29T06:32:08.502Z,2.03
2019-04-29T06:34:40.062Z,2.23
2019-04-29T06:37:06.753Z,2.10
2019-04-29T06:39:35.037Z,2.30
2019-04-29T06:42:03.281Z,2.10
2019-04-29T06:44:31.541Z,2.27
2019-04-29T06:46:59.817Z,2.10
2019-04-29T06:49:28.081Z,1.83
2019-04-29T06:51:56.334Z,2.03
2019-04-29T06:54:24.592Z,2.03
2019-04-29T06:56:53.416Z,2.13
2019-04-29T06:59:21.698Z,2.10
2019-04-29T07:01:49.946Z,1.70
2019-04-29T07:04:18.526Z,2.30
2019-04-29T07:06:57.100Z,1.50
2019-04-29T07:09:16.786Z,1.63
2019-04-29T07:11:45.041Z,1.80
2019-04-29T07:14:13.293Z,2.00
2019-04-29T07:16:41.555Z,1.90
2019-04-29T07:19:09.806Z,1.90
2019-04-29T07:21:41.794Z,1.50
2019-04-29T07:24:08.056Z,1.87
2019-04-29T07:26:36.315Z,1.60
2019-04-29T07:29:04.573Z,1.73
2019-04-29T07:31:34.810Z,1.70
2019-04-29T07:34:02.803Z,1.70
2019-04-29T07:36:31.062Z,1.70
2019-04-29T07:38:59.881Z,1.70
2019-04-29T07:41:28.146Z,1.83
2019-04-29T07:43:56.421Z,2.20
2019-04-29T07:46:26.342Z,2.00
2019-04-29T07:49:01.446Z,2.00
2019-04-29T07:51:24.974Z,1.90
2019-04-29T07:53:53.225Z,1.83
2019-04-29T07:56:21.481Z,1.67
2019-04-29T07:58:49.772Z,1.87
2019-04-29T08:01:19.874Z,1.60
2019-04-29T08:03:48.005Z,2.00
2019-04-29T08:06:16.258Z,1.93
2019-04-29T08:08:54.661Z,1.90
2019-04-29T08:11:14.502Z,1.70
2019-04-29T08:13:43.770Z,1.60
2019-04-29T08:16:12.716Z,1.80
2019-04-29T08:18:42.010Z,1.87
2019-04-29T08:21:14.138Z,1.60
2019-04-29T08:23:42.070Z,1.60
2019-04-29T08:26:10.750Z,1.70
2019-04-29T08:28:39.009Z,1.47
2019-04-29T08:31:07.256Z,1.57
2019-04-29T08:33:35.555Z,11.90
2019-04-29T08:36:03.877Z,12.80
2019-04-29T08:38:32.146Z,6.33
2019-04-29T08:41:00.427Z,5.13
2019-04-29T08:43:48.453Z,8.10
2019-04-29T08:46:21.422Z,7.23
2019-04-29T08:48:49.702Z,5.30
2019-04-29T08:51:17.958Z,4.10
2019-04-29T08:53:46.221Z,4.20
2019-04-29T08:56:14.507Z,4.20
2019-04-29T08:58:44.424Z,3.43
2019-04-29T09:01:12.835Z,4.10
2019-04-29T09:03:41.224Z,3.30
2019-04-29T09:06:09.626Z,3.70
2019-04-29T09:08:53.515Z,2.93
2019-04-29T09:11:13.020Z,2.97
2019-04-29T09:13:38.786Z,3.27
2019-04-29T09:16:07.117Z,3.37
2019-04-29T09:18:35.366Z,3.00
2019-04-29T09:21:04.225Z,3.80
2019-04-29T09:23:34.119Z,3.20
2019-04-29T09:26:06.681Z,3.10
2019-04-29T09:28:35.611Z,3.00
2019-04-29T09:31:03.876Z,3.37
2019-04-29T09:33:32.619Z,3.33
2019-04-29T09:36:00.882Z,3.13
2019-04-29T09:38:32.470Z,3.17
2019-04-29T09:41:09.524Z,2.70
2019-04-29T09:43:59.257Z,3.27
2019-04-29T09:46:30.105Z,2.77
2019-04-29T09:48:57.655Z,2.67
2019-04-29T09:51:27.964Z,3.10
2019-04-29T09:53:55.991Z,2.97
2019-04-29T09:56:24.254Z,2.57
2019-04-29T09:58:54.144Z,2.57
2019-04-29T10:01:30.025Z,2.60
2019-04-29T10:03:59.917Z,3.37
2019-04-29T10:06:29.834Z,2.70
2019-04-29T10:08:58.153Z,2.83
2019-04-29T10:11:26.582Z,2.40
2019-04-29T10:13:54.837Z,3.03
2019-04-29T10:16:41.122Z,2.63
2019-04-29T10:19:13.902Z,2.13
2019-04-29T10:21:42.190Z,2.60
2019-04-29T10:24:11.033Z,2.50
2019-04-29T10:26:39.297Z,2.57
2019-04-29T10:29:18.424Z,2.30
2019-04-29T10:31:45.098Z,2.53
2019-04-29T10:34:13.810Z,2.50
2019-04-29T10:36:42.099Z,2.63
2019-04-29T10:39:28.517Z,2.67
2019-04-29T10:41:58.493Z,2.23
2019-04-29T10:44:44.729Z,2.10
2019-04-29T10:47:20.617Z,2.43
2019-04-29T10:49:53.404Z,2.77
2019-04-29T10:52:21.666Z,2.53
2019-04-29T10:54:51.594Z,2.47
2019-04-29T10:57:20.137Z,2.53
2019-04-29T10:59:50.823Z,2.57
2019-04-29T11:02:26.694Z,2.30
2019-04-29T11:05:02.891Z,2.13
2019-04-29T11:07:32.917Z,2.00
2019-04-29T11:10:08.028Z,2.20
2019-04-29T11:12:35.782Z,2.43
2019-04-29T11:15:09.960Z,2.40
2019-04-29T11:17:39.819Z,2.37
2019-04-29T11:20:11.219Z,2.70
2019-04-29T11:22:44.557Z,2.40
2019-04-29T11:25:30.278Z,2.57
2019-04-29T11:27:59.946Z,2.77
2019-04-29T11:30:29.835Z,2.30
2019-04-29T11:33:18.077Z,2.00
2019-04-29T11:35:48.029Z,2.93
2019-04-29T11:38:17.561Z,2.40
2019-04-29T11:40:46.285Z,2.43
2019-04-29T11:43:17.279Z,2.73
2019-04-29T11:45:46.225Z,2.93
2019-04-29T11:48:14.645Z,2.40
2019-04-29T11:50:45.077Z,2.87
2019-04-29T11:53:15.319Z,2.30
2019-04-29T11:55:46.271Z,2.13
2019-04-29T11:58:24.206Z,2.20
2019-04-29T12:00:56.846Z,2.03
2019-04-29T12:03:42.049Z,2.10
2019-04-29T12:06:16.217Z,2.30
2019-04-29T12:08:42.530Z,2.37
2019-04-29T12:11:10.794Z,2.50
2019-04-29T12:13:40.681Z,2.23
2019-04-29T12:16:10.608Z,2.20
2019-04-29T12:18:43.461Z,2.17
2019-04-29T12:21:13.362Z,2.10
2019-04-29T12:23:41.638Z,1.73
2019-04-29T12:26:10.169Z,2.23
2019-04-29T12:28:42.780Z,2.50
2019-04-29T12:31:13.109Z,2.50
2019-04-29T12:33:43.181Z,2.57
2019-04-29T12:36:16.164Z,2.17
2019-04-29T12:38:49.426Z,2.20
2019-04-29T12:41:31.722Z,3.33
2019-04-29T12:44:01.783Z,2.20
2019-04-29T12:46:31.863Z,1.93
2019-04-29T12:49:03.636Z,2.30
2019-04-29T12:51:30.234Z,2.20
2019-04-29T12:53:58.505Z,2.80
2019-04-29T12:56:28.994Z,2.23
2019-04-29T12:58:59.577Z,2.07
2019-04-29T13:01:50.124Z,2.73
2019-04-29T13:04:03.461Z,2.30
2019-04-29T13:06:39.602Z,2.33
2019-04-29T13:09:17.631Z,2.50
2019-04-29T13:11:48.270Z,1.90
2019-04-29T13:14:08.189Z,2.83
2019-04-29T13:16:41.287Z,2.77
2019-04-29T13:19:14.431Z,2.60
2019-04-29T13:21:41.177Z,2.30
2019-04-29T13:24:18.207Z,1.90
2019-04-29T13:26:42.422Z,1.90
2019-04-29T13:29:09.443Z,2.00
2019-04-29T13:31:39.044Z,2.10
2019-04-29T13:34:23.906Z,2.10
2019-04-29T13:36:39.383Z,2.27
2019-04-29T13:39:07.629Z,3.20
2019-04-29T13:41:55.634Z,2.03
2019-04-29T13:44:07.577Z,2.30
2019-04-29T13:46:54.462Z,1.97
2019-04-29T13:49:27.464Z,2.00
2019-04-29T13:51:57.394Z,2.03
2019-04-29T13:54:25.681Z,2.17
2019-04-29T13:56:56.684Z,2.10
2019-04-29T13:59:25.647Z,1.93
2019-04-29T14:02:04.707Z,2.20
2019-04-29T14:04:30.107Z,2.43
2019-04-29T14:06:58.394Z,2.27
2019-04-29T14:09:26.752Z,2.57
2019-04-29T14:12:02.060Z,1.80
2019-04-29T14:14:28.152Z,1.90
2019-04-29T14:17:11.489Z,2.10
2019-04-29T14:19:40.383Z,2.03
2019-04-29T14:21:55.165Z,2.10
2019-04-29T14:24:23.418Z,1.90
2019-04-29T14:26:51.677Z,2.27
2019-04-29T14:29:23.081Z,1.83
2019-04-29T14:31:54.133Z,1.80
2019-04-29T14:34:23.182Z,1.70
2019-04-29T14:36:51.442Z,1.87
2019-04-29T14:39:36.179Z,1.97
2019-04-29T14:41:55.403Z,2.00
2019-04-29T14:44:35.354Z,2.03
2019-04-29T14:47:08.201Z,1.70
2019-04-29T14:49:49.962Z,1.90
2019-04-29T14:52:18.301Z,2.10
2019-04-29T14:54:46.554Z,1.80
2019-04-29T14:57:14.806Z,2.53
2019-04-29T14:59:43.408Z,2.37
2019-04-29T15:02:17.368Z,3.07
2019-04-29T15:04:44.549Z,2.33
2019-04-29T15:07:13.050Z,2.57
2019-04-29T15:09:58.092Z,2.47
2019-04-29T15:12:51.804Z,2.33
2019-04-29T15:15:20.011Z,2.17
2019-04-29T15:17:49.902Z,2.47
2019-04-29T15:20:36.081Z,2.30
2019-04-29T15:23:04.669Z,2.30
2019-04-29T15:25:32.931Z,2.23
2019-04-29T15:28:01.210Z,2.70
2019-04-29T15:30:31.657Z,2.17
2019-04-29T15:32:59.737Z,2.20
2019-04-29T15:35:28.182Z,1.80
2019-04-29T15:37:56.451Z,2.03
2019-04-29T15:40:25.996Z,2.00
2019-04-29T15:42:54.734Z,1.93
2019-04-29T15:45:23.045Z,2.20
2019-04-29T15:47:51.358Z,1.80
2019-04-29T15:50:19.833Z,1.90
2019-04-29T15:52:48.089Z,2.37
2019-04-29T15:55:16.371Z,2.07
2019-04-29T15:57:49.531Z,2.00
2019-04-29T16:00:21.937Z,2.40
2019-04-29T16:02:45.232Z,1.83
2019-04-29T16:05:15.374Z,2.03
2019-04-29T16:08:01.574Z,2.33
2019-04-29T16:10:34.616Z,1.93
2019-04-29T16:13:07.551Z,1.97
2019-04-29T16:15:35.822Z,2.07
2019-04-29T16:18:05.461Z,1.97
2019-04-29T16:20:34.098Z,1.90
2019-04-29T16:23:02.376Z,2.20
2019-04-29T16:25:30.688Z,2.07
2019-04-29T16:27:58.947Z,2.07
2019-04-29T16:30:31.908Z,1.90
2019-04-29T16:32:57.181Z,1.90
2019-04-29T16:35:26.161Z,2.20
2019-04-29T16:37:55.486Z,1.70
2019-04-29T16:40:25.414Z,1.90
2019-04-29T16:43:11.509Z,1.93
2019-04-29T16:45:51.599Z,2.40
2019-04-29T16:48:14.769Z,2.07
2019-04-29T16:50:43.017Z,2.63
2019-04-29T16:53:11.278Z,2.00
2019-04-29T16:55:43.067Z,1.80
2019-04-29T16:58:17.798Z,2.23
2019-04-29T17:00:39.898Z,2.00
2019-04-29T17:03:08.154Z,1.90
2019-04-29T17:05:36.700Z,2.43
2019-04-29T17:08:09.400Z,1.73
2019-04-29T17:10:37.039Z,2.10
2019-04-29T17:13:09.117Z,3.03
2019-04-29T17:15:35.273Z,2.40
2019-04-29T17:18:05.203Z,2.57
2019-04-29T17:20:33.514Z,2.10
2019-04-29T17:23:01.798Z,2.10
2019-04-29T17:25:30.534Z,2.17
2019-04-29T17:28:00.429Z,2.03
2019-04-29T17:30:48.416Z,2.53
2019-04-29T17:33:25.830Z,2.20
2019-04-29T17:35:49.849Z,2.23
2019-04-29T17:38:18.109Z,2.20
2019-04-29T17:40:51.043Z,2.33
2019-04-29T17:43:20.731Z,1.83
2019-04-29T17:45:59.475Z,1.90
2019-04-29T17:48:29.397Z,2.30
2019-04-29T17:51:02.513Z,2.30
2019-04-29T17:53:41.897Z,1.93
2019-04-29T17:56:11.791Z,2.33
2019-04-29T17:58:43.932Z,1.93
2019-04-29T18:01:31.943Z,1.73
2019-04-29T18:04:16.702Z,2.10
2019-04-29T18:06:51.108Z,2.00
2019-04-29T18:09:29.857Z,1.80
2019-04-29T18:11:58.777Z,2.00
2019-04-29T18:14:36.481Z,2.20
2019-04-29T18:16:57.958Z,2.30
2019-04-29T18:19:34.522Z,2.13
2019-04-29T18:22:11.278Z,2.10
2019-04-29T18:24:45.251Z,1.90
2019-04-29T18:27:15.391Z,2.27
2019-04-29T18:29:43.745Z,2.10
2019-04-29T18:32:12.124Z,1.63
2019-04-29T18:34:40.382Z,2.30
2019-04-29T18:37:08.638Z,1.80
2019-04-29T18:39:37.569Z,1.80
2019-04-29T18:42:06.825Z,1.97
2019-04-29T18:44:35.878Z,1.90
2019-04-29T18:47:05.491Z,2.20
2019-04-29T18:49:34.015Z,1.80
2019-04-29T18:52:03.965Z,2.00
2019-04-29T18:54:32.282Z,2.13
2019-04-29T18:57:00.549Z,1.83
2019-04-29T18:59:33.440Z,2.07
2019-04-29T19:02:00.993Z,1.77
2019-04-29T19:04:48.563Z,1.90
2019-04-29T19:07:15.601Z,1.70
2019-04-29T19:09:45.319Z,1.83
2019-04-29T19:12:14.282Z,2.00
2019-04-29T19:14:45.446Z,1.70
2019-04-29T19:17:12.521Z,1.90
2019-04-29T19:19:40.769Z,1.70
2019-04-29T19:22:09.597Z,1.77
2019-04-29T19:24:38.191Z,1.70
2019-04-29T19:27:09.632Z,1.70
2019-04-29T19:29:38.866Z,1.80
2019-04-29T19:32:06.634Z,2.10
2019-04-29T19:34:42.921Z,1.60
2019-04-29T19:37:05.218Z,1.70
2019-04-29T19:39:34.934Z,1.63
2019-04-29T19:42:03.398Z,1.80
2019-04-29T19:44:33.335Z,1.70
2019-04-29T19:47:01.633Z,1.83
2019-04-29T19:49:30.365Z,1.90
2019-04-29T19:51:58.929Z,1.80
2019-04-29T19:54:28.557Z,1.60
2019-04-29T19:57:03.235Z,1.70
2019-04-29T19:59:27.470Z,1.60
2019-04-29T20:02:02.186Z,1.90
2019-04-29T20:04:33.790Z,1.80
2019-04-29T20:07:07.410Z,1.97
2019-04-29T20:09:33.311Z,1.80
2019-04-29T20:12:11.307Z,1.73
2019-04-29T20:14:33.833Z,1.77
2019-04-29T20:17:20.435Z,1.70
2019-04-29T20:19:55.467Z,1.87
2019-04-29T20:22:20.767Z,1.50
2019-04-29T20:24:50.684Z,1.40
2019-04-29T20:27:20.505Z,1.80
2019-04-29T20:29:49.728Z,1.73
2019-04-29T20:32:22.269Z,1.63
2019-04-29T20:34:48.265Z,1.83
2019-04-29T20:37:19.803Z,1.80
2019-04-29T20:39:51.677Z,1.60
2019-04-29T20:42:17.764Z,1.60
2019-04-29T20:44:49.356Z,1.60
2019-04-29T20:47:22.250Z,1.40
2019-04-29T20:49:46.318Z,1.70
2019-04-29T20:52:28.898Z,1.80
2019-04-29T20:55:00.819Z,1.50
2019-04-29T20:57:27.860Z,1.90
2019-04-29T20:59:56.416Z,2.20
2019-04-29T21:02:31.193Z,1.80
2019-04-29T21:04:55.895Z,1.80
2019-04-29T21:07:25.774Z,2.00
2019-04-29T21:09:55.791Z,2.00
2019-04-29T21:12:34.850Z,1.73
2019-04-29T21:15:07.442Z,1.63
2019-04-29T21:17:35.221Z,1.60
2019-04-29T21:20:04.769Z,1.70
2019-04-29T21:22:33.031Z,1.50
2019-04-29T21:25:01.293Z,1.80
2019-04-29T21:27:29.582Z,2.00
2019-04-29T21:29:57.841Z,1.77
2019-04-29T21:32:26.108Z,2.17
2019-04-29T21:35:05.773Z,1.50
2019-04-29T21:37:39.989Z,1.97
2019-04-29T21:40:16.839Z,1.67
2019-04-29T21:42:47.626Z,1.60
2019-04-29T21:45:17.463Z,1.63
2019-04-29T21:47:53.043Z,1.57
2019-04-29T21:50:16.194Z,1.90
2019-04-29T21:52:44.755Z,1.40
2019-04-29T21:55:16.095Z,2.03
2019-04-29T21:57:44.614Z,1.80
2019-04-29T22:00:13.074Z,1.63
2019-04-29T22:02:45.327Z,1.97
2019-04-29T22:05:14.827Z,1.60
2019-04-29T22:07:44.567Z,1.80
2019-04-29T22:10:11.453Z,1.90
2019-04-29T22:12:39.709Z,2.10
2019-04-29T22:15:07.964Z,1.70
2019-04-29T22:17:36.253Z,1.77
2019-04-29T22:20:07.841Z,1.60
2019-04-29T22:22:36.755Z,1.63
2019-04-29T22:25:09.817Z,1.80
2019-04-29T22:27:39.344Z,1.80
2019-04-29T22:30:10.218Z,1.70
2019-04-29T22:32:38.593Z,1.60
2019-04-29T22:35:07.812Z,1.90
2019-04-29T22:37:38.191Z,1.70
2019-04-29T22:40:07.340Z,1.97
2019-04-29T22:42:37.457Z,1.77
2019-04-29T22:45:09.109Z,1.80
2019-04-29T22:47:37.374Z,1.70
2019-04-29T22:50:05.731Z,1.50
2019-04-29T22:52:34.870Z,1.80
2019-04-29T22:55:05.933Z,1.53
2019-04-29T22:57:34.626Z,1.33
2019-04-29T23:00:05.137Z,1.63
2019-04-29T23:02:33.521Z,1.30
2019-04-29T23:05:01.815Z,1.67
2019-04-29T23:07:30.159Z,2.00
2019-04-29T23:09:58.406Z,1.70
2019-04-29T23:12:26.841Z,1.83
2019-04-29T23:14:56.520Z,1.97
2019-04-29T23:17:25.502Z,1.47
2019-04-29T23:19:57.032Z,1.70
2019-04-29T23:22:27.087Z,1.60
2019-04-29T23:24:59.911Z,1.60
2019-04-29T23:27:28.232Z,1.80
2019-04-29T23:29:56.513Z,2.00
2019-04-29T23:32:25.353Z,1.90
2019-04-29T23:34:54.995Z,1.70
2019-04-29T23:37:27.134Z,1.77
2019-04-29T23:39:55.646Z,1.47
2019-04-29T23:42:23.699Z,1.67
2019-04-29T23:44:51.953Z,1.80
2019-04-29T23:47:20.241Z,1.83
2019-04-29T23:49:48.493Z,1.50
2019-04-29T23:52:17.944Z,2.07
2019-04-29T23:54:48.488Z,1.60
2019-04-29T23:57:23.551Z,1.40
